sensor_id;sensor_type;location;lat;lon;timestamp;P1;durP1;ratioP1;P2;durP2;ratioP2
6280;SDS011;3173;48.204;11.612;2023-06-22T00:01:51;11.53;;;5.70;;
6280;SDS011;3173;48.204;11.612;2023-06-22T00:04:17;8.53;;;4.10;;
6280;SDS011;3173;48.204;11.612;2023-06-22T00:06:43;10.10;;;4.63;;
6280;SDS011;3173;48.204;11.612;2023-06-22T00:09:09;11.73;;;5.20;;
6280;SDS011;3173;48.204;11.612;2023-06-22T00:11:36;9.90;;;4.63;;
6280;SDS011;3173;48.204;11.612;2023-06-22T00:14:03;10.30;;;4.67;;
6280;SDS011;3173;48.204;11.612;2023-06-22T00:16:29;11.70;;;4.73;;
6280;SDS011;3173;48.204;11.612;2023-06-22T00:18:55;9.60;;;4.00;;
6280;SDS011;3173;48.204;11.612;2023-06-22T00:21:28;6.23;;;3.77;;
6280;SDS011;3173;48.204;11.612;2023-06-22T00:23:55;6.33;;;3.83;;
6280;SDS011;3173;48.204;11.612;2023-06-22T00:26:22;11.40;;;4.70;;
6280;SDS011;3173;48.204;11.612;2023-06-22T00:28:48;7.60;;;4.27;;
6280;SDS011;3173;48.204;11.612;2023-06-22T00:31:14;9.90;;;4.10;;
6280;SDS011;3173;48.204;11.612;2023-06-22T00:33:41;7.23;;;3.77;;
6280;SDS011;3173;48.204;11.612;2023-06-22T00:36:07;10.63;;;4.40;;
6280;SDS011;3173;48.204;11.612;2023-06-22T00:38:33;7.43;;;3.80;;
6280;SDS011;3173;48.204;11.612;2023-06-22T00:41:00;8.77;;;4.30;;
6280;SDS011;3173;48.204;11.612;2023-06-22T00:43:26;6.73;;;3.50;;
6280;SDS011;3173;48.204;11.612;2023-06-22T00:45:52;6.40;;;3.70;;
6280;SDS011;3173;48.204;11.612;2023-06-22T00:48:18;10.00;;;4.23;;
6280;SDS011;3173;48.204;11.612;2023-06-22T00:50:44;9.10;;;4.43;;
6280;SDS011;3173;48.204;11.612;2023-06-22T00:53:11;8.40;;;4.30;;
6280;SDS011;3173;48.204;11.612;2023-06-22T00:55:39;7.60;;;4.13;;
6280;SDS011;3173;48.204;11.612;2023-06-22T00:58:08;8.90;;;4.63;;
6280;SDS011;3173;48.204;11.612;2023-06-22T01:00:35;8.07;;;4.77;;
6280;SDS011;3173;48.204;11.612;2023-06-22T01:03:02;8.60;;;4.20;;
6280;SDS011;3173;48.204;11.612;2023-06-22T01:05:28;10.77;;;4.50;;
6280;SDS011;3173;48.204;11.612;2023-06-22T01:12:52;9.80;;;4.43;;
6280;SDS011;3173;48.204;11.612;2023-06-22T01:15:21;8.10;;;3.63;;
6280;SDS011;3173;48.204;11.612;2023-06-22T01:17:49;13.37;;;5.33;;
6280;SDS011;3173;48.204;11.612;2023-06-22T01:20:16;6.83;;;4.20;;
6280;SDS011;3173;48.204;11.612;2023-06-22T01:22:49;6.20;;;3.70;;
6280;SDS011;3173;48.204;11.612;2023-06-22T01:25:19;10.60;;;4.03;;
6280;SDS011;3173;48.204;11.612;2023-06-22T01:30:21;8.23;;;3.97;;
6280;SDS011;3173;48.204;11.612;2023-06-22T01:32:50;6.77;;;3.33;;
6280;SDS011;3173;48.204;11.612;2023-06-22T01:35:17;8.10;;;4.50;;
6280;SDS011;3173;48.204;11.612;2023-06-22T01:37:44;15.67;;;4.67;;
6280;SDS011;3173;48.204;11.612;2023-06-22T01:40:12;8.63;;;3.73;;
6280;SDS011;3173;48.204;11.612;2023-06-22T01:42:38;18.47;;;4.80;;
6280;SDS011;3173;48.204;11.612;2023-06-22T01:45:05;7.00;;;4.00;;
6280;SDS011;3173;48.204;11.612;2023-06-22T01:47:31;7.90;;;4.50;;
6280;SDS011;3173;48.204;11.612;2023-06-22T01:49:57;7.60;;;4.57;;
6280;SDS011;3173;48.204;11.612;2023-06-22T01:52:24;8.80;;;4.50;;
6280;SDS011;3173;48.204;11.612;2023-06-22T01:54:50;8.70;;;4.87;;
6280;SDS011;3173;48.204;11.612;2023-06-22T01:57:16;8.10;;;4.70;;
6280;SDS011;3173;48.204;11.612;2023-06-22T01:59:49;10.83;;;4.73;;
6280;SDS011;3173;48.204;11.612;2023-06-22T02:02:19;10.50;;;4.63;;
6280;SDS011;3173;48.204;11.612;2023-06-22T02:04:52;6.70;;;4.03;;
6280;SDS011;3173;48.204;11.612;2023-06-22T02:07:20;6.30;;;4.17;;
6280;SDS011;3173;48.204;11.612;2023-06-22T02:09:47;7.93;;;4.07;;
6280;SDS011;3173;48.204;11.612;2023-06-22T02:12:17;9.00;;;4.83;;
6280;SDS011;3173;48.204;11.612;2023-06-22T02:14:43;10.47;;;4.73;;
6280;SDS011;3173;48.204;11.612;2023-06-22T02:17:11;9.00;;;4.50;;
6280;SDS011;3173;48.204;11.612;2023-06-22T02:19:40;12.27;;;5.40;;
6280;SDS011;3173;48.204;11.612;2023-06-22T02:22:07;11.80;;;5.10;;
6280;SDS011;3173;48.204;11.612;2023-06-22T02:24:33;10.40;;;4.97;;
6280;SDS011;3173;48.204;11.612;2023-06-22T02:26:59;9.53;;;4.70;;
6280;SDS011;3173;48.204;11.612;2023-06-22T02:29:26;8.23;;;4.90;;
6280;SDS011;3173;48.204;11.612;2023-06-22T02:31:52;8.77;;;4.73;;
6280;SDS011;3173;48.204;11.612;2023-06-22T02:34:18;12.50;;;5.03;;
6280;SDS011;3173;48.204;11.612;2023-06-22T02:36:45;12.17;;;4.70;;
6280;SDS011;3173;48.204;11.612;2023-06-22T02:39:22;6.70;;;4.13;;
6280;SDS011;3173;48.204;11.612;2023-06-22T02:41:51;7.43;;;4.20;;
6280;SDS011;3173;48.204;11.612;2023-06-22T02:44:18;8.83;;;4.87;;
6280;SDS011;3173;48.204;11.612;2023-06-22T02:46:45;10.73;;;5.00;;
6280;SDS011;3173;48.204;11.612;2023-06-22T02:49:11;11.00;;;5.37;;
6280;SDS011;3173;48.204;11.612;2023-06-22T02:51:42;9.40;;;5.10;;
6280;SDS011;3173;48.204;11.612;2023-06-22T02:54:08;8.43;;;4.73;;
6280;SDS011;3173;48.204;11.612;2023-06-22T02:56:34;17.80;;;5.30;;
6280;SDS011;3173;48.204;11.612;2023-06-22T02:59:01;13.23;;;5.30;;
6280;SDS011;3173;48.204;11.612;2023-06-22T03:01:27;9.67;;;5.67;;
6280;SDS011;3173;48.204;11.612;2023-06-22T03:03:55;10.93;;;5.87;;
6280;SDS011;3173;48.204;11.612;2023-06-22T03:06:21;16.17;;;5.33;;
6280;SDS011;3173;48.204;11.612;2023-06-22T03:08:48;10.80;;;5.50;;
6280;SDS011;3173;48.204;11.612;2023-06-22T03:11:14;11.13;;;5.60;;
6280;SDS011;3173;48.204;11.612;2023-06-22T03:13:41;13.43;;;5.93;;
6280;SDS011;3173;48.204;11.612;2023-06-22T03:16:07;10.43;;;5.93;;
6280;SDS011;3173;48.204;11.612;2023-06-22T03:18:33;12.37;;;5.90;;
6280;SDS011;3173;48.204;11.612;2023-06-22T03:20:59;12.20;;;5.53;;
6280;SDS011;3173;48.204;11.612;2023-06-22T03:23:27;12.43;;;5.70;;
6280;SDS011;3173;48.204;11.612;2023-06-22T03:25:53;12.70;;;6.00;;
6280;SDS011;3173;48.204;11.612;2023-06-22T03:28:21;9.67;;;5.70;;
6280;SDS011;3173;48.204;11.612;2023-06-22T03:30:47;11.33;;;5.70;;
6280;SDS011;3173;48.204;11.612;2023-06-22T03:33:13;11.60;;;5.50;;
6280;SDS011;3173;48.204;11.612;2023-06-22T03:35:39;13.83;;;5.10;;
6280;SDS011;3173;48.204;11.612;2023-06-22T03:38:05;11.00;;;5.33;;
6280;SDS011;3173;48.204;11.612;2023-06-22T03:40:31;11.33;;;5.63;;
6280;SDS011;3173;48.204;11.612;2023-06-22T03:42:57;11.10;;;5.40;;
6280;SDS011;3173;48.204;11.612;2023-06-22T03:45:23;12.90;;;5.50;;
6280;SDS011;3173;48.204;11.612;2023-06-22T03:47:50;11.70;;;6.30;;
6280;SDS011;3173;48.204;11.612;2023-06-22T03:50:16;12.80;;;6.00;;
6280;SDS011;3173;48.204;11.612;2023-06-22T03:52:42;11.80;;;5.23;;
6280;SDS011;3173;48.204;11.612;2023-06-22T03:55:08;11.73;;;5.73;;
6280;SDS011;3173;48.204;11.612;2023-06-22T03:57:34;13.60;;;6.60;;
6280;SDS011;3173;48.204;11.612;2023-06-22T04:00:00;11.57;;;5.70;;
6280;SDS011;3173;48.204;11.612;2023-06-22T04:02:30;15.80;;;5.50;;
6280;SDS011;3173;48.204;11.612;2023-06-22T04:04:56;12.20;;;5.50;;
6280;SDS011;3173;48.204;11.612;2023-06-22T04:07:22;12.70;;;6.00;;
6280;SDS011;3173;48.204;11.612;2023-06-22T04:09:48;9.87;;;5.90;;
6280;SDS011;3173;48.204;11.612;2023-06-22T04:12:14;10.53;;;6.37;;
6280;SDS011;3173;48.204;11.612;2023-06-22T04:14:41;9.17;;;6.60;;
6280;SDS011;3173;48.204;11.612;2023-06-22T04:17:07;16.13;;;6.67;;
6280;SDS011;3173;48.204;11.612;2023-06-22T04:19:33;11.97;;;5.90;;
6280;SDS011;3173;48.204;11.612;2023-06-22T04:21:59;13.20;;;6.23;;
6280;SDS011;3173;48.204;11.612;2023-06-22T04:24:25;11.20;;;6.00;;
6280;SDS011;3173;48.204;11.612;2023-06-22T04:26:51;11.13;;;6.60;;
6280;SDS011;3173;48.204;11.612;2023-06-22T04:29:19;12.87;;;6.17;;
6280;SDS011;3173;48.204;11.612;2023-06-22T04:31:45;12.77;;;6.30;;
6280;SDS011;3173;48.204;11.612;2023-06-22T04:34:16;14.03;;;5.90;;
6280;SDS011;3173;48.204;11.612;2023-06-22T04:36:42;12.13;;;6.73;;
6280;SDS011;3173;48.204;11.612;2023-06-22T04:39:10;14.73;;;6.63;;
6280;SDS011;3173;48.204;11.612;2023-06-22T04:41:37;11.60;;;6.00;;
6280;SDS011;3173;48.204;11.612;2023-06-22T04:44:13;11.30;;;6.17;;
6280;SDS011;3173;48.204;11.612;2023-06-22T04:46:52;12.17;;;5.70;;
6280;SDS011;3173;48.204;11.612;2023-06-22T04:49:20;13.87;;;7.77;;
6280;SDS011;3173;48.204;11.612;2023-06-22T04:51:47;10.27;;;6.57;;
6280;SDS011;3173;48.204;11.612;2023-06-22T04:54:14;9.90;;;6.00;;
6280;SDS011;3173;48.204;11.612;2023-06-22T04:56:40;14.10;;;6.03;;
6280;SDS011;3173;48.204;11.612;2023-06-22T04:59:06;11.63;;;6.13;;
6280;SDS011;3173;48.204;11.612;2023-06-22T05:01:33;11.57;;;6.27;;
6280;SDS011;3173;48.204;11.612;2023-06-22T05:04:00;12.90;;;6.27;;
6280;SDS011;3173;48.204;11.612;2023-06-22T05:06:28;12.20;;;5.97;;
6280;SDS011;3173;48.204;11.612;2023-06-22T05:08:55;11.10;;;6.37;;
6280;SDS011;3173;48.204;11.612;2023-06-22T05:11:25;11.73;;;5.57;;
6280;SDS011;3173;48.204;11.612;2023-06-22T05:13:51;13.17;;;6.43;;
6280;SDS011;3173;48.204;11.612;2023-06-22T05:16:17;10.40;;;6.00;;
6280;SDS011;3173;48.204;11.612;2023-06-22T05:18:52;12.33;;;5.70;;
6280;SDS011;3173;48.204;11.612;2023-06-22T05:21:22;17.50;;;6.23;;
6280;SDS011;3173;48.204;11.612;2023-06-22T05:23:49;20.00;;;6.97;;
6280;SDS011;3173;48.204;11.612;2023-06-22T05:26:15;10.63;;;5.83;;
6280;SDS011;3173;48.204;11.612;2023-06-22T05:28:41;13.77;;;6.37;;
6280;SDS011;3173;48.204;11.612;2023-06-22T05:31:10;14.63;;;5.90;;
6280;SDS011;3173;48.204;11.612;2023-06-22T05:33:37;12.20;;;6.47;;
6280;SDS011;3173;48.204;11.612;2023-06-22T05:36:03;11.87;;;6.77;;
6280;SDS011;3173;48.204;11.612;2023-06-22T05:38:29;15.20;;;6.80;;
6280;SDS011;3173;48.204;11.612;2023-06-22T05:40:55;13.33;;;6.90;;
6280;SDS011;3173;48.204;11.612;2023-06-22T05:43:21;13.90;;;6.17;;
6280;SDS011;3173;48.204;11.612;2023-06-22T05:45:47;11.63;;;5.70;;
6280;SDS011;3173;48.204;11.612;2023-06-22T05:48:13;14.70;;;6.30;;
6280;SDS011;3173;48.204;11.612;2023-06-22T05:50:39;16.50;;;6.47;;
6280;SDS011;3173;48.204;11.612;2023-06-22T05:53:05;22.07;;;6.73;;
6280;SDS011;3173;48.204;11.612;2023-06-22T05:55:32;13.80;;;5.77;;
6280;SDS011;3173;48.204;11.612;2023-06-22T05:57:58;12.03;;;5.83;;
6280;SDS011;3173;48.204;11.612;2023-06-22T06:00:24;12.87;;;5.43;;
6280;SDS011;3173;48.204;11.612;2023-06-22T06:02:50;10.47;;;6.17;;
6280;SDS011;3173;48.204;11.612;2023-06-22T06:05:17;10.43;;;6.20;;
6280;SDS011;3173;48.204;11.612;2023-06-22T06:07:44;16.10;;;7.00;;
6280;SDS011;3173;48.204;11.612;2023-06-22T06:10:10;9.80;;;5.70;;
6280;SDS011;3173;48.204;11.612;2023-06-22T06:12:36;13.43;;;6.50;;
6280;SDS011;3173;48.204;11.612;2023-06-22T06:15:03;14.20;;;6.63;;
6280;SDS011;3173;48.204;11.612;2023-06-22T06:17:30;9.50;;;5.23;;
6280;SDS011;3173;48.204;11.612;2023-06-22T06:19:56;20.00;;;6.77;;
6280;SDS011;3173;48.204;11.612;2023-06-22T06:22:22;13.83;;;6.67;;
6280;SDS011;3173;48.204;11.612;2023-06-22T06:24:48;11.10;;;6.03;;
6280;SDS011;3173;48.204;11.612;2023-06-22T06:27:15;13.33;;;6.40;;
6280;SDS011;3173;48.204;11.612;2023-06-22T06:29:43;14.03;;;6.53;;
6280;SDS011;3173;48.204;11.612;2023-06-22T06:32:13;12.83;;;6.60;;
6280;SDS011;3173;48.204;11.612;2023-06-22T06:34:39;10.33;;;5.60;;
6280;SDS011;3173;48.204;11.612;2023-06-22T06:37:05;14.30;;;6.90;;
6280;SDS011;3173;48.204;11.612;2023-06-22T06:39:32;13.03;;;6.40;;
6280;SDS011;3173;48.204;11.612;2023-06-22T06:41:58;14.50;;;6.57;;
6280;SDS011;3173;48.204;11.612;2023-06-22T06:44:24;11.90;;;6.70;;
6280;SDS011;3173;48.204;11.612;2023-06-22T06:46:50;12.63;;;6.60;;
6280;SDS011;3173;48.204;11.612;2023-06-22T06:49:16;13.00;;;6.77;;
6280;SDS011;3173;48.204;11.612;2023-06-22T06:51:42;10.23;;;6.17;;
6280;SDS011;3173;48.204;11.612;2023-06-22T06:54:08;13.97;;;6.93;;
6280;SDS011;3173;48.204;11.612;2023-06-22T06:56:34;14.83;;;6.40;;
6280;SDS011;3173;48.204;11.612;2023-06-22T06:59:00;14.60;;;7.37;;
6280;SDS011;3173;48.204;11.612;2023-06-22T07:01:26;10.50;;;6.13;;
6280;SDS011;3173;48.204;11.612;2023-06-22T07:03:52;14.00;;;6.73;;
6280;SDS011;3173;48.204;11.612;2023-06-22T07:06:18;12.87;;;6.43;;
6280;SDS011;3173;48.204;11.612;2023-06-22T07:08:44;19.00;;;7.30;;
6280;SDS011;3173;48.204;11.612;2023-06-22T07:11:10;12.57;;;5.80;;
6280;SDS011;3173;48.204;11.612;2023-06-22T07:13:36;17.43;;;7.67;;
6280;SDS011;3173;48.204;11.612;2023-06-22T07:16:03;10.50;;;6.33;;
6280;SDS011;3173;48.204;11.612;2023-06-22T07:18:30;12.53;;;6.17;;
6280;SDS011;3173;48.204;11.612;2023-06-22T07:20:56;13.67;;;6.90;;
6280;SDS011;3173;48.204;11.612;2023-06-22T07:23:22;17.43;;;7.00;;
6280;SDS011;3173;48.204;11.612;2023-06-22T07:25:48;12.50;;;5.90;;
6280;SDS011;3173;48.204;11.612;2023-06-22T07:28:14;11.53;;;5.90;;
6280;SDS011;3173;48.204;11.612;2023-06-22T07:30:40;9.20;;;6.13;;
6280;SDS011;3173;48.204;11.612;2023-06-22T07:33:06;12.37;;;6.63;;
6280;SDS011;3173;48.204;11.612;2023-06-22T07:35:33;10.30;;;6.33;;
6280;SDS011;3173;48.204;11.612;2023-06-22T07:37:59;14.43;;;6.43;;
6280;SDS011;3173;48.204;11.612;2023-06-22T07:40:25;11.20;;;5.83;;
6280;SDS011;3173;48.204;11.612;2023-06-22T07:42:51;11.37;;;6.17;;
6280;SDS011;3173;48.204;11.612;2023-06-22T07:45:18;13.53;;;6.50;;
6280;SDS011;3173;48.204;11.612;2023-06-22T07:47:45;12.20;;;7.10;;
6280;SDS011;3173;48.204;11.612;2023-06-22T07:50:11;15.13;;;7.40;;
6280;SDS011;3173;48.204;11.612;2023-06-22T07:52:37;13.17;;;6.53;;
6280;SDS011;3173;48.204;11.612;2023-06-22T07:55:03;20.63;;;7.27;;
6280;SDS011;3173;48.204;11.612;2023-06-22T07:57:30;14.63;;;6.00;;
6280;SDS011;3173;48.204;11.612;2023-06-22T07:59:59;11.23;;;5.80;;
6280;SDS011;3173;48.204;11.612;2023-06-22T08:02:25;14.37;;;6.17;;
6280;SDS011;3173;48.204;11.612;2023-06-22T08:04:51;13.53;;;7.10;;
6280;SDS011;3173;48.204;11.612;2023-06-22T08:07:17;9.60;;;6.00;;
6280;SDS011;3173;48.204;11.612;2023-06-22T08:09:48;18.43;;;6.40;;
6280;SDS011;3173;48.204;11.612;2023-06-22T08:12:15;12.43;;;6.50;;
6280;SDS011;3173;48.204;11.612;2023-06-22T08:14:42;12.50;;;5.60;;
6280;SDS011;3173;48.204;11.612;2023-06-22T08:17:11;15.20;;;6.50;;
6280;SDS011;3173;48.204;11.612;2023-06-22T08:19:39;11.90;;;5.97;;
6280;SDS011;3173;48.204;11.612;2023-06-22T08:22:05;12.97;;;5.90;;
6280;SDS011;3173;48.204;11.612;2023-06-22T08:24:32;13.73;;;5.73;;
6280;SDS011;3173;48.204;11.612;2023-06-22T08:26:58;23.13;;;6.30;;
6280;SDS011;3173;48.204;11.612;2023-06-22T08:29:24;10.80;;;5.77;;
6280;SDS011;3173;48.204;11.612;2023-06-22T08:31:50;11.77;;;5.50;;
6280;SDS011;3173;48.204;11.612;2023-06-22T08:34:17;16.00;;;5.73;;
6280;SDS011;3173;48.204;11.612;2023-06-22T08:36:47;14.70;;;5.80;;
6280;SDS011;3173;48.204;11.612;2023-06-22T08:39:16;13.20;;;5.00;;
6280;SDS011;3173;48.204;11.612;2023-06-22T08:41:43;13.83;;;5.70;;
6280;SDS011;3173;48.204;11.612;2023-06-22T08:44:10;17.03;;;5.90;;
6280;SDS011;3173;48.204;11.612;2023-06-22T08:46:36;13.10;;;4.70;;
6280;SDS011;3173;48.204;11.612;2023-06-22T08:49:04;10.83;;;5.03;;
6280;SDS011;3173;48.204;11.612;2023-06-22T08:51:31;14.87;;;5.97;;
6280;SDS011;3173;48.204;11.612;2023-06-22T08:53:57;15.83;;;5.30;;
6280;SDS011;3173;48.204;11.612;2023-06-22T08:56:23;13.83;;;4.90;;
6280;SDS011;3173;48.204;11.612;2023-06-22T08:58:49;12.37;;;5.50;;
6280;SDS011;3173;48.204;11.612;2023-06-22T09:01:15;13.70;;;5.50;;
6280;SDS011;3173;48.204;11.612;2023-06-22T09:03:41;13.10;;;6.20;;
6280;SDS011;3173;48.204;11.612;2023-06-22T09:06:07;15.07;;;5.37;;
6280;SDS011;3173;48.204;11.612;2023-06-22T09:08:38;12.13;;;5.37;;
6280;SDS011;3173;48.204;11.612;2023-06-22T09:11:04;15.03;;;5.20;;
6280;SDS011;3173;48.204;11.612;2023-06-22T09:13:31;12.50;;;5.40;;
6280;SDS011;3173;48.204;11.612;2023-06-22T09:15:57;15.07;;;5.23;;
6280;SDS011;3173;48.204;11.612;2023-06-22T09:18:23;11.30;;;5.20;;
6280;SDS011;3173;48.204;11.612;2023-06-22T09:20:49;17.47;;;6.03;;
6280;SDS011;3173;48.204;11.612;2023-06-22T09:23:15;11.07;;;5.00;;
6280;SDS011;3173;48.204;11.612;2023-06-22T09:25:41;12.27;;;5.10;;
6280;SDS011;3173;48.204;11.612;2023-06-22T09:28:07;12.10;;;5.70;;
6280;SDS011;3173;48.204;11.612;2023-06-22T09:30:34;14.80;;;5.40;;
6280;SDS011;3173;48.204;11.612;2023-06-22T09:33:00;13.90;;;5.23;;
6280;SDS011;3173;48.204;11.612;2023-06-22T09:35:26;14.73;;;5.27;;
6280;SDS011;3173;48.204;11.612;2023-06-22T09:37:52;13.83;;;5.10;;
6280;SDS011;3173;48.204;11.612;2023-06-22T09:40:18;14.10;;;4.97;;
6280;SDS011;3173;48.204;11.612;2023-06-22T09:42:45;10.80;;;5.10;;
6280;SDS011;3173;48.204;11.612;2023-06-22T09:45:11;12.90;;;5.70;;
6280;SDS011;3173;48.204;11.612;2023-06-22T09:47:37;12.90;;;5.07;;
6280;SDS011;3173;48.204;11.612;2023-06-22T09:50:03;12.83;;;4.93;;
6280;SDS011;3173;48.204;11.612;2023-06-22T09:52:29;15.63;;;5.13;;
6280;SDS011;3173;48.204;11.612;2023-06-22T09:54:55;15.70;;;5.50;;
6280;SDS011;3173;48.204;11.612;2023-06-22T09:57:21;16.73;;;6.00;;
6280;SDS011;3173;48.204;11.612;2023-06-22T09:59:47;17.23;;;5.70;;
6280;SDS011;3173;48.204;11.612;2023-06-22T10:02:13;17.43;;;4.90;;
6280;SDS011;3173;48.204;11.612;2023-06-22T10:04:39;11.07;;;5.70;;
6280;SDS011;3173;48.204;11.612;2023-06-22T10:07:06;10.17;;;5.17;;
6280;SDS011;3173;48.204;11.612;2023-06-22T10:09:32;16.30;;;5.00;;
6280;SDS011;3173;48.204;11.612;2023-06-22T10:11:58;12.43;;;5.50;;
6280;SDS011;3173;48.204;11.612;2023-06-22T10:14:24;11.03;;;5.43;;
6280;SDS011;3173;48.204;11.612;2023-06-22T10:16:52;14.03;;;4.83;;
6280;SDS011;3173;48.204;11.612;2023-06-22T10:19:18;15.67;;;5.00;;
6280;SDS011;3173;48.204;11.612;2023-06-22T10:21:44;8.70;;;5.00;;
6280;SDS011;3173;48.204;11.612;2023-06-22T10:24:11;13.00;;;4.73;;
6280;SDS011;3173;48.204;11.612;2023-06-22T10:26:37;10.67;;;4.90;;
6280;SDS011;3173;48.204;11.612;2023-06-22T10:29:03;13.33;;;6.80;;
6280;SDS011;3173;48.204;11.612;2023-06-22T10:31:29;16.97;;;5.90;;
6280;SDS011;3173;48.204;11.612;2023-06-22T10:33:55;13.23;;;5.40;;
6280;SDS011;3173;48.204;11.612;2023-06-22T10:36:22;17.90;;;5.77;;
6280;SDS011;3173;48.204;11.612;2023-06-22T10:38:48;13.37;;;5.40;;
6280;SDS011;3173;48.204;11.612;2023-06-22T10:41:14;15.10;;;5.07;;
6280;SDS011;3173;48.204;11.612;2023-06-22T10:43:41;12.03;;;5.67;;
6280;SDS011;3173;48.204;11.612;2023-06-22T10:46:07;13.67;;;5.10;;
6280;SDS011;3173;48.204;11.612;2023-06-22T10:48:34;12.37;;;5.03;;
6280;SDS011;3173;48.204;11.612;2023-06-22T10:51:00;10.97;;;5.27;;
6280;SDS011;3173;48.204;11.612;2023-06-22T10:53:26;11.90;;;5.10;;
6280;SDS011;3173;48.204;11.612;2023-06-22T10:55:52;15.63;;;5.23;;
6280;SDS011;3173;48.204;11.612;2023-06-22T10:58:19;11.83;;;5.00;;
6280;SDS011;3173;48.204;11.612;2023-06-22T11:00:45;16.23;;;5.10;;
6280;SDS011;3173;48.204;11.612;2023-06-22T11:03:12;9.63;;;5.03;;
6280;SDS011;3173;48.204;11.612;2023-06-22T11:05:39;9.63;;;5.20;;
6280;SDS011;3173;48.204;11.612;2023-06-22T11:08:06;17.30;;;5.97;;
6280;SDS011;3173;48.204;11.612;2023-06-22T11:10:32;17.20;;;4.70;;
6280;SDS011;3173;48.204;11.612;2023-06-22T11:12:58;9.70;;;5.40;;
6280;SDS011;3173;48.204;11.612;2023-06-22T11:15:25;11.90;;;5.60;;
6280;SDS011;3173;48.204;11.612;2023-06-22T11:17:51;12.90;;;5.80;;
6280;SDS011;3173;48.204;11.612;2023-06-22T11:20:17;11.67;;;5.07;;
6280;SDS011;3173;48.204;11.612;2023-06-22T11:22:43;20.27;;;6.07;;
6280;SDS011;3173;48.204;11.612;2023-06-22T11:25:09;14.63;;;5.47;;
6280;SDS011;3173;48.204;11.612;2023-06-22T11:27:37;14.50;;;5.60;;
6280;SDS011;3173;48.204;11.612;2023-06-22T11:30:03;13.30;;;6.00;;
6280;SDS011;3173;48.204;11.612;2023-06-22T11:32:29;11.70;;;5.37;;
6280;SDS011;3173;48.204;11.612;2023-06-22T11:34:55;21.83;;;6.57;;
6280;SDS011;3173;48.204;11.612;2023-06-22T11:37:21;14.90;;;5.73;;
6280;SDS011;3173;48.204;11.612;2023-06-22T11:39:48;12.53;;;5.33;;
6280;SDS011;3173;48.204;11.612;2023-06-22T11:42:14;14.90;;;5.50;;
6280;SDS011;3173;48.204;11.612;2023-06-22T11:44:41;10.30;;;4.90;;
6280;SDS011;3173;48.204;11.612;2023-06-22T11:47:08;14.60;;;5.77;;
6280;SDS011;3173;48.204;11.612;2023-06-22T11:49:34;16.40;;;5.53;;
6280;SDS011;3173;48.204;11.612;2023-06-22T11:52:00;13.23;;;5.30;;
6280;SDS011;3173;48.204;11.612;2023-06-22T11:54:26;16.90;;;6.37;;
6280;SDS011;3173;48.204;11.612;2023-06-22T11:56:52;15.93;;;5.87;;
6280;SDS011;3173;48.204;11.612;2023-06-22T11:59:18;12.17;;;5.10;;
6280;SDS011;3173;48.204;11.612;2023-06-22T12:01:44;11.60;;;6.23;;
6280;SDS011;3173;48.204;11.612;2023-06-22T12:04:10;13.63;;;5.63;;
6280;SDS011;3173;48.204;11.612;2023-06-22T12:06:37;10.60;;;4.77;;
6280;SDS011;3173;48.204;11.612;2023-06-22T12:09:06;13.20;;;5.77;;
6280;SDS011;3173;48.204;11.612;2023-06-22T12:11:32;12.97;;;4.67;;
6280;SDS011;3173;48.204;11.612;2023-06-22T12:13:58;11.90;;;5.50;;
6280;SDS011;3173;48.204;11.612;2023-06-22T12:16:27;17.00;;;4.73;;
6280;SDS011;3173;48.204;11.612;2023-06-22T12:18:53;11.37;;;4.80;;
6280;SDS011;3173;48.204;11.612;2023-06-22T12:21:19;11.60;;;4.90;;
6280;SDS011;3173;48.204;11.612;2023-06-22T12:23:45;11.93;;;4.77;;
6280;SDS011;3173;48.204;11.612;2023-06-22T12:26:12;11.77;;;4.60;;
6280;SDS011;3173;48.204;11.612;2023-06-22T12:28:38;14.23;;;6.03;;
6280;SDS011;3173;48.204;11.612;2023-06-22T12:31:03;14.60;;;5.60;;
6280;SDS011;3173;48.204;11.612;2023-06-22T12:33:29;11.53;;;5.33;;
6280;SDS011;3173;48.204;11.612;2023-06-22T12:35:56;11.30;;;5.03;;
6280;SDS011;3173;48.204;11.612;2023-06-22T12:38:22;10.50;;;4.80;;
6280;SDS011;3173;48.204;11.612;2023-06-22T12:40:50;14.10;;;5.10;;
6280;SDS011;3173;48.204;11.612;2023-06-22T12:43:16;11.63;;;5.57;;
6280;SDS011;3173;48.204;11.612;2023-06-22T12:45:42;12.90;;;5.23;;
6280;SDS011;3173;48.204;11.612;2023-06-22T12:48:08;13.37;;;4.70;;
6280;SDS011;3173;48.204;11.612;2023-06-22T12:50:34;17.27;;;4.73;;
6280;SDS011;3173;48.204;11.612;2023-06-22T12:53:00;11.03;;;4.67;;
6280;SDS011;3173;48.204;11.612;2023-06-22T12:55:28;16.53;;;5.50;;
6280;SDS011;3173;48.204;11.612;2023-06-22T12:57:54;15.30;;;5.13;;
6280;SDS011;3173;48.204;11.612;2023-06-22T13:00:20;13.13;;;4.40;;
6280;SDS011;3173;48.204;11.612;2023-06-22T13:02:46;8.23;;;4.40;;
6280;SDS011;3173;48.204;11.612;2023-06-22T13:05:12;11.17;;;5.23;;
6280;SDS011;3173;48.204;11.612;2023-06-22T13:07:38;14.77;;;5.03;;
6280;SDS011;3173;48.204;11.612;2023-06-22T13:10:04;14.80;;;5.37;;
6280;SDS011;3173;48.204;11.612;2023-06-22T13:12:30;15.33;;;4.83;;
6280;SDS011;3173;48.204;11.612;2023-06-22T13:14:56;9.40;;;4.37;;
6280;SDS011;3173;48.204;11.612;2023-06-22T13:17:22;14.43;;;4.80;;
6280;SDS011;3173;48.204;11.612;2023-06-22T13:19:48;12.23;;;5.10;;
6280;SDS011;3173;48.204;11.612;2023-06-22T13:24:55;9.70;;;5.07;;
6280;SDS011;3173;48.204;11.612;2023-06-22T13:27:21;11.43;;;5.73;;
6280;SDS011;3173;48.204;11.612;2023-06-22T13:29:47;14.67;;;5.00;;
6280;SDS011;3173;48.204;11.612;2023-06-22T13:32:13;15.57;;;4.70;;
6280;SDS011;3173;48.204;11.612;2023-06-22T13:34:39;17.00;;;4.93;;
6280;SDS011;3173;48.204;11.612;2023-06-22T13:37:05;10.07;;;4.60;;
6280;SDS011;3173;48.204;11.612;2023-06-22T13:39:31;14.07;;;4.40;;
6280;SDS011;3173;48.204;11.612;2023-06-22T13:41:57;15.30;;;5.33;;
6280;SDS011;3173;48.204;11.612;2023-06-22T13:44:23;11.70;;;4.73;;
6280;SDS011;3173;48.204;11.612;2023-06-22T13:46:53;14.67;;;6.07;;
6280;SDS011;3173;48.204;11.612;2023-06-22T13:49:19;16.80;;;5.50;;
6280;SDS011;3173;48.204;11.612;2023-06-22T13:51:46;11.53;;;4.70;;
6280;SDS011;3173;48.204;11.612;2023-06-22T13:54:13;10.43;;;4.90;;
6280;SDS011;3173;48.204;11.612;2023-06-22T13:56:39;8.63;;;4.77;;
6280;SDS011;3173;48.204;11.612;2023-06-22T13:59:05;8.60;;;4.20;;
6280;SDS011;3173;48.204;11.612;2023-06-22T14:01:34;12.20;;;4.53;;
6280;SDS011;3173;48.204;11.612;2023-06-22T14:04:00;15.90;;;4.93;;
6280;SDS011;3173;48.204;11.612;2023-06-22T14:06:27;12.30;;;4.60;;
6280;SDS011;3173;48.204;11.612;2023-06-22T14:08:53;12.27;;;5.37;;
6280;SDS011;3173;48.204;11.612;2023-06-22T14:11:19;11.00;;;4.60;;
6280;SDS011;3173;48.204;11.612;2023-06-22T14:13:45;12.40;;;4.70;;
6280;SDS011;3173;48.204;11.612;2023-06-22T14:16:11;25.57;;;5.03;;
6280;SDS011;3173;48.204;11.612;2023-06-22T14:18:37;15.40;;;4.77;;
6280;SDS011;3173;48.204;11.612;2023-06-22T14:21:03;9.57;;;4.40;;
6280;SDS011;3173;48.204;11.612;2023-06-22T14:23:30;10.07;;;4.50;;
6280;SDS011;3173;48.204;11.612;2023-06-22T14:25:56;15.30;;;4.20;;
6280;SDS011;3173;48.204;11.612;2023-06-22T14:28:22;10.00;;;4.60;;
6280;SDS011;3173;48.204;11.612;2023-06-22T14:30:48;19.23;;;5.10;;
6280;SDS011;3173;48.204;11.612;2023-06-22T14:33:14;17.63;;;6.27;;
6280;SDS011;3173;48.204;11.612;2023-06-22T14:35:40;12.20;;;4.70;;
6280;SDS011;3173;48.204;11.612;2023-06-22T14:38:06;12.13;;;4.80;;
6280;SDS011;3173;48.204;11.612;2023-06-22T14:40:32;9.00;;;4.77;;
6280;SDS011;3173;48.204;11.612;2023-06-22T14:42:58;7.73;;;4.00;;
6280;SDS011;3173;48.204;11.612;2023-06-22T14:45:24;10.60;;;4.53;;
6280;SDS011;3173;48.204;11.612;2023-06-22T14:47:51;10.10;;;4.43;;
6280;SDS011;3173;48.204;11.612;2023-06-22T14:50:17;12.10;;;4.93;;
6280;SDS011;3173;48.204;11.612;2023-06-22T14:52:43;11.50;;;4.60;;
6280;SDS011;3173;48.204;11.612;2023-06-22T14:55:09;11.03;;;4.40;;
6280;SDS011;3173;48.204;11.612;2023-06-22T14:57:35;18.83;;;5.10;;